Latest Coastal Weather Observations for Friendly Beaches

IDT60701

Issued at 9:52 pm EDT Thursday 30 March 2017 (issued every 10 minutes, with the page automatically refreshed every 10 minutes)

About coastal observations | Map of coastal stations | Coastal observations for TAS | Marine services | Other Formats
Station Details ID: 092114 Name: FRIENDLY BEACHES Lat: -42.00 Lon: 148.28 Height: 55.0 m
Data from the previous 72 hours. | See also: Recent months at Friendly Beaches
Date/Time
EDT
Temp
°C
Wind Pressure Rain since
9am
mm
Weather Cloud Vis
km
Sea
Height
m
Swell
Dir  Spd
kts
Gust
kts
hPa Trend Height
m
Period
s
Dir
30/09:30pm 10.7 SW 5 8 1019.3 - 1.2 - - - - - - -
30/09:00pm 10.3 WSW 3 4 1019.0 - 1.2 Recent precip. - - - - - -
30/08:30pm 10.4 WNW 2 3 1018.6 - 1.2 - - - - - - -
30/08:00pm 10.7 SSW 3 6 1018.0 - 1.0 - - - - - - -
30/07:30pm 10.2 SW 2 3 1017.3 - 1.0 - - - - - - -
30/07:00pm 10.9 S 4 6 1017.0 - 1.0 - - - - - - -
30/06:30pm 12.4 SW 6 10 1016.4 - 0.4 - - - - - - -
30/06:00pm 12.7 SSE 11 17 1015.6 - 0.4 Rain - - - - - -
30/05:30pm 14.5 SSE 12 16 1014.8 - 0.0 - - - - - - -
30/05:00pm 15.0 SE 12 16 1014.4 - 0.0 - - - - - - -
30/04:30pm 15.7 SE 11 16 1013.8 - 0.0 - - - - - - -
30/04:00pm 15.7 SE 11 16 1013.5 - 0.0 - - - - - - -
30/03:30pm 17.8 SE 10 14 1013.1 - 0.0 - - - - - - -
30/03:00pm 16.3 SE 10 15 1012.8 - 0.0 - - - - - - -
30/02:30pm 15.8 SE 10 14 1012.8 - 0.0 - - - - - - -
30/02:00pm 17.7 S 6 11 1012.6 - 0.0 - - - - - - -
30/01:30pm 16.6 S 5 13 1012.5 - 0.0 - - - - - - -
30/01:00pm 17.8 SSW 5 11 1012.3 - 0.0 - - - - - - -
30/12:30pm 17.5 SSW 8 14 1012.2 - 0.0 - - - - - - -
30/12:00pm 16.8 WSW 8 15 1012.3 - 0.0 - - - - - - -
30/11:30am 16.0 SSW 10 16 1012.2 - 0.0 - - - - - - -
30/11:00am 15.9 W 6 10 1012.1 - 0.0 - - - - - - -
30/10:30am 15.1 W 6 13 1012.1 - 0.0 - - - - - - -
30/10:00am 14.8 WSW 4 8 1011.8 - 0.0 - - - - - - -
30/09:30am 14.1 W 3 5 1011.4 - 0.0 - - - - - - -
30/09:00am 11.6 WNW 4 6 1011.0 - 0.2 - - - - - - -
30/08:30am 11.3 CALM 0 0 1010.7 - 0.2 - - - - - - -
30/08:00am 11.4 NW 3 5 1009.9 - 0.2 - - - - - - -
30/07:30am 10.9 NW 3 5 1009.3 - 0.2 - - - - - - -
30/07:00am 11.2 WNW 3 4 1008.8 - 0.2 - - - - - - -
30/06:30am 11.6 WNW 4 6 1008.1 - 0.2 - - - - - - -
30/06:00am 11.8 WNW 5 7 1007.5 - 0.2 - - - - - - -
30/05:30am 11.9 W 5 7 1007.3 - 0.2 - - - - - - -
30/05:00am 12.0 WSW 4 6 1006.8 - 0.2 - - - - - - -
30/04:30am 12.1 WSW 4 6 1006.5 - 0.2 - - - - - - -
30/04:00am 12.1 WNW 4 6 1006.7 - 0.2 - - - - - - -
30/03:30am 12.0 WNW 4 6 1007.1 - 0.2 - - - - - - -
30/03:00am 12.1 W 2 4 1006.2 - 0.2 - - - - - - -
30/02:30am 12.4 WNW 3 4 1006.7 - 0.2 - - - - - - -
30/02:00am 12.6 W 3 5 1006.8 - 0.2 - - - - - - -
30/01:30am 12.8 SW 4 6 1006.1 - 0.2 - - - - - - -
30/01:00am 12.7 WSW 4 6 1006.0 - 0.2 - - - - - - -
30/12:30am 12.9 SW 4 8 1005.4 - 0.2 - - - - - - -
30/12:00am 11.9 SW 3 7 1005.3 - 0.2 - - - - - - -
 
Date/Time
EDT
Temp
°C
Wind Pressure Rain since
9am
mm
Weather Cloud Vis
km
Sea
Height
m
Swell
Dir  Spd
kts
Gust
kts
hPa Trend Height
m
Period
s
Dir
29/11:30pm 12.4 WNW 4 8 1004.4 - 0.2 - - - - - - -
29/11:00pm 12.7 W 5 9 1004.6 - 0.2 - - - - - - -
29/10:30pm 12.6 WSW 7 12 1004.7 - 0.2 - - - - - - -
29/10:00pm 12.3 WSW 8 14 1004.4 - 0.2 - - - - - - -
29/09:30pm 11.8 WSW 9 14 1004.4 - 0.2 - - - - - - -
29/09:00pm 12.4 SW 11 19 1004.6 - 0.0 - - - - - - -
29/08:57pm 13.0 SW 11 19 1004.4 - 0.0 - - - - - - -
29/08:30pm 17.3 WSW 12 26 1002.4 - 0.0 - - - - - - -
29/08:00pm 18.1 NW 4 7 1000.7 - 0.0 - - - - - - -
29/07:30pm 18.6 NNW 4 7 999.8 - 0.0 - - - - - - -
29/07:00pm 19.3 NNW 7 12 999.5 - 0.0 - - - - - - -
29/06:30pm 19.8 NNW 6 10 998.8 - 0.0 - - - - - - -
29/06:00pm 20.1 WNW 10 17 998.6 - 0.0 - - - - - - -
29/05:30pm 21.6 NW 11 18 998.4 - 0.0 - - - - - - -
29/05:00pm 24.1 NNW 6 12 998.0 - 0.0 - - - - - - -
29/04:30pm 24.4 NNW 5 9 998.0 - 0.0 - - - - - - -
29/04:00pm 22.5 WNW 7 11 998.5 - 0.0 - - - - - - -
29/03:30pm 24.1 WNW 6 9 998.8 - 0.0 - - - - - - -
29/03:00pm 23.1 WNW 7 14 999.1 - 0.0 - - - - - - -
29/02:30pm 24.9 NW 5 9 999.5 - 0.0 - - - - - - -
29/02:00pm 23.6 NW 9 15 1000.1 - 0.0 - - - - - - -
29/01:30pm 24.7 N 11 19 1000.5 - 0.0 - - - - - - -
29/01:00pm 24.5 N 11 20 1001.0 - 0.0 - - - - - - -
29/12:30pm 24.0 N 10 18 1001.5 - 0.0 - - - - - - -
29/12:00pm 23.8 N 10 16 1002.2 - 0.0 - - - - - - -
29/11:30am 22.7 N 11 19 1002.5 - 0.0 - - - - - - -
29/11:00am 22.1 N 10 19 1002.9 - 0.0 - - - - - - -
29/10:30am 22.0 N 7 12 1003.5 - 0.0 - - - - - - -
29/10:00am 21.2 NNE 7 13 1003.9 - 0.0 - - - - - - -
29/09:30am 20.0 NNE 9 15 1004.1 - 0.0 - - - - - - -
29/09:00am 18.5 N 8 13 1004.1 - 0.0 - - - - - - -
29/08:30am 17.9 N 10 14 1004.3 - 0.0 - - - - - - -
29/08:00am 18.2 NNW 6 13 1004.4 - 0.0 - - - - - - -
29/07:30am 16.6 NNE 5 17 1004.8 - 0.0 - - - - - - -
29/07:00am 14.8 N 4 8 1005.0 - 0.0 - - - - - - -
29/06:30am 14.9 NNE 4 6 1005.1 - 0.0 - - - - - - -
29/06:00am 15.2 N 5 8 1005.1 - 0.0 - - - - - - -
29/05:30am 15.4 N 5 8 1005.3 - 0.0 - - - - - - -
29/05:00am 16.7 NNW 8 12 1005.2 - 0.0 - - - - - - -
29/04:30am 16.9 NW 9 15 1005.1 - 0.0 - - - - - - -
29/04:00am 16.6 NNW 7 16 1005.4 - 0.0 - - - - - - -
29/03:30am 16.2 NNW 8 17 1005.9 - 0.0 - - - - - - -
29/03:00am 16.3 NW 5 9 1006.2 - 0.0 - - - - - - -
29/02:30am 16.2 NNW 5 11 1006.5 - 0.0 - - - - - - -
29/02:00am 16.8 NNW 7 16 1006.7 - 0.0 - - - - - - -
29/01:30am 16.6 NW 5 10 1006.8 - 0.0 - - - - - - -
29/01:00am 17.2 NW 9 18 1007.1 - 0.0 - - - - - - -
29/12:30am 16.7 WNW 7 13 1007.2 - 0.0 - - - - - - -
29/12:00am 16.9 WNW 7 16 1007.5 - 0.0 - - - - - - -
 
Date/Time
EDT
Temp
°C
Wind Pressure Rain since
9am
mm
Weather Cloud Vis
km
Sea
Height
m
Swell
Dir  Spd
kts
Gust
kts
hPa Trend Height
m
Period
s
Dir
28/11:30pm 17.0 WNW 12 25 1007.4 - 0.0 - - - - - - -
28/11:00pm 16.9 WNW 8 16 1007.5 - 0.0 - - - - - - -
28/10:30pm 16.8 WNW 6 15 1007.8 - 0.0 - - - - - - -
28/10:00pm 17.0 NW 7 13 1007.9 - 0.0 - - - - - - -
28/09:30pm 16.9 NW 4 9 1007.5 - 0.0 - - - - - - -
28/09:00pm 17.5 NW 6 15 1007.1 - 0.0 - - - - - - -
28/08:30pm 17.6 NW 5 10 1006.9 - 0.0 - - - - - - -
28/08:00pm 18.0 NW 6 13 1006.4 - 0.0 - - - - - - -
28/07:30pm 18.5 NW 10 17 1006.1 - 0.0 - - - - - - -
28/07:00pm 19.0 NW 11 18 1005.9 - 0.0 - - - - - - -
28/06:30pm 19.7 NW 11 19 1005.6 - 0.0 - - - - - - -
28/06:00pm 20.7 NW 11 19 1005.4 - 0.0 - - - - - - -
28/05:30pm 21.3 WNW 13 23 1005.2 - 0.0 - - - - - - -
28/05:00pm 22.1 WNW 12 19 1004.7 - 0.0 - - - - - - -
28/04:30pm 22.4 NW 14 24 1004.6 - 0.0 - - - - - - -
28/04:00pm 22.9 NW 13 21 1004.6 - 0.0 - - - - - - -
28/03:30pm 22.9 WNW 11 17 1004.8 - 0.0 - - - - - - -
28/03:00pm 23.3 WNW 9 15 1005.1 - 0.0 - - - - - - -
28/02:30pm 23.7 NW 9 16 1005.3 - 0.0 - - - - - - -
28/02:00pm 22.6 NW 11 18 1005.5 - 0.0 - - - - - - -
28/01:30pm 21.9 WNW 12 22 1005.9 - 0.0 - - - - - - -
28/01:00pm 22.3 NW 9 20 1006.1 - 0.0 - - - - - - -
28/12:30pm 22.0 WNW 9 14 1006.4 - 0.0 - - - - - - -
28/12:00pm 21.5 NW 9 20 1006.7 - 0.0 - - - - - - -
28/11:30am 20.7 NW 10 16 1007.0 - 0.0 - - - - - - -
28/11:00am 20.3 NW 10 16 1007.0 - 0.0 - - - - - - -
28/10:30am 19.3 WNW 10 14 1006.8 - 0.0 - - - - - - -
28/10:00am 18.6 NW 11 21 1007.1 - 0.0 - - - - - - -
28/09:30am 18.0 WNW 11 18 1006.9 - 0.0 - - - - - - -
28/09:00am 17.3 NW 8 15 1007.1 - 0.6 - - - - - - -
28/08:30am 16.4 NNW 3 7 1007.3 - 0.6 - - - - - - -
28/08:00am 15.5 NW 6 9 1007.0 - 0.6 - - - - - - -
28/07:30am 15.0 WNW 8 12 1006.8 - 0.6 - - - - - - -
28/07:00am 14.4 W 7 13 1006.4 - 0.6 - - - - - - -
28/06:30am 12.7 WNW 2 3 1006.5 - 0.6 - - - - - - -
28/06:00am 12.4 W 1 4 1006.5 - 0.6 - - - - - - -
28/05:30am 11.9 N 3 4 1006.2 - 0.6 - - - - - - -
28/05:00am 13.1 WNW 5 7 1006.0 - 0.6 - - - - - - -
28/04:30am 13.4 WNW 7 11 1005.8 - 0.6 - - - - - - -
28/04:00am 13.4 WNW 3 7 1006.2 - 0.6 - - - - - - -
28/03:30am 13.4 WNW 4 7 1006.2 - 0.6 - - - - - - -
28/03:00am 13.6 NNW 4 7 1006.1 - 0.6 - - - - - - -
28/02:30am 14.1 NW 4 7 1006.1 - 0.6 - - - - - - -
28/02:00am 14.4 NW 5 8 1006.0 - 0.6 - - - - - - -
28/01:30am 14.6 NW 3 6 1006.1 - 0.6 - - - - - - -
28/01:00am 14.4 NNW 4 7 1006.4 - 0.6 - - - - - - -
28/12:30am 14.8 NNW 5 10 1006.4 - 0.6 - - - - - - -
28/12:00am 15.5 NW 6 12 1006.3 - 0.6 - - - - - - -
 
Date/Time
EDT
Temp
°C
Wind Pressure Rain since
9am
mm
Weather Cloud Vis
km
Sea
Height
m
Swell
Dir  Spd
kts
Gust
kts
hPa Trend Height
m
Period
s
Dir
27/11:30pm 16.0 NW 9 16 1005.7 - 0.6 - - - - - - -
27/11:00pm 16.1 NW 12 18 1005.1 - 0.6 - - - - - - -
27/10:30pm 15.9 NW 6 13 1005.1 - 0.6 - - - - - - -
27/10:00pm 16.1 NW 11 18 1004.4 - 0.6 - - - - - - -

Other Formats:

Comma delimited format used in spreadsheet applications
http://www.bom.gov.au/fwo/IDT60701/IDT60701.94987.axf

JavaScript Object Notation format (JSON) in row-major order
http://www.bom.gov.au/fwo/IDT60701/IDT60701.94987.json